Time,TemperatureF,DewpointF,PressureIn,WindDirection,WindDirectionDegrees,WindSpeedMPH,WindSpeedGustMPH,Humidity,HourlyPrecipIn,Conditions,Clouds,dailyrainin,SoftwareType,DateUTC
2013-01-11 00:00:00,39.8,37.7,29.91,South,186,9.0,9.0,92,0.09,,,0.04,Wunderground v.1.15,2013-01-11 06:00:00,
2013-01-11 00:05:00,39.6,37.5,29.91,SSE,151,9.0,9.0,92,0.08,,,0.05,Wunderground v.1.15,2013-01-11 06:05:00,
2013-01-11 00:10:00,39.8,37.7,29.91,SSE,163,8.0,12.0,92,0.13,,,0.06,Wunderground v.1.15,2013-01-11 06:10:00,
2013-01-11 00:15:00,39.8,37.7,29.91,South,180,8.0,12.0,92,0.25,,,0.08,Wunderground v.1.15,2013-01-11 06:15:00,
2013-01-11 00:19:00,39.9,37.8,29.91,SSE,153,8.0,8.0,92,0.13,,,0.09,Wunderground v.1.15,2013-01-11 06:19:00,
2013-01-11 00:24:00,40.1,38.0,29.91,SE,144,8.0,8.0,92,0.10,,,0.10,Wunderground v.1.15,2013-01-11 06:24:00,
2013-01-11 00:29:00,40.2,38.1,29.89,SSE,156,8.0,8.0,92,0.10,,,0.10,Wunderground v.1.15,2013-01-11 06:29:00,
2013-01-11 00:34:00,40.3,38.2,29.89,SSE,151,7.0,10.0,92,0.05,,,0.10,Wunderground v.1.15,2013-01-11 06:34:00,
2013-01-11 00:40:00,40.5,38.4,29.89,SE,145,7.0,7.0,92,0.04,,,0.11,Wunderground v.1.15,2013-01-11 06:40:00,
2013-01-11 00:49:00,40.8,38.7,29.88,SSE,161,8.0,9.0,92,0.04,,,0.11,Wunderground v.1.15,2013-01-11 06:49:00,
2013-01-11 00:54:00,40.9,38.8,29.88,SE,126,8.0,12.0,92,0.04,,,0.11,Wunderground v.1.15,2013-01-11 06:54:00,
2013-01-11 01:00:00,40.9,38.8,29.86,South,175,9.0,9.0,92,0.00,,,0.11,Wunderground v.1.15,2013-01-11 07:00:00,
2013-01-11 01:05:00,41.1,39.0,29.86,SSW,196,9.0,13.0,92,0.00,,,0.11,Wunderground v.1.15,2013-01-11 07:05:00,
2013-01-11 01:10:00,41.1,39.0,29.86,SE,146,9.0,11.0,92,0.00,,,0.11,Wunderground v.1.15,2013-01-11 07:10:00,
2013-01-11 01:15:00,41.2,39.1,29.86,SSE,160,9.0,11.0,92,0.00,,,0.11,Wunderground v.1.15,2013-01-11 07:15:00,
2013-01-11 01:20:00,41.5,39.3,29.86,SSE,149,9.0,12.0,92,0.00,,,0.11,Wunderground v.1.15,2013-01-11 07:20:00,
2013-01-11 01:25:00,41.5,39.3,29.86,SSE,168,10.0,12.0,92,0.00,,,0.11,Wunderground v.1.15,2013-01-11 07:25:00,
2013-01-11 01:30:00,41.5,39.3,29.85,South,172,9.0,12.0,92,0.00,,,0.11,Wunderground v.1.15,2013-01-11 07:30:00,
2013-01-11 01:39:00,41.6,39.4,29.85,SSE,163,9.0,9.0,92,0.00,,,0.11,Wunderground v.1.15,2013-01-11 07:39:00,
2013-01-11 01:44:00,41.6,39.4,29.84,South,178,8.0,17.0,92,0.00,,,0.11,Wunderground v.1.15,2013-01-11 07:44:00,
2013-01-11 01:50:00,41.6,39.2,29.84,SSE,148,8.0,8.0,91,0.00,,,0.11,Wunderground v.1.15,2013-01-11 07:50:00,
2013-01-11 01:54:00,41.8,39.4,29.84,SSE,161,8.0,8.0,91,0.00,,,0.11,Wunderground v.1.15,2013-01-11 07:54:00,
2013-01-11 01:59:00,41.9,39.5,29.83,SSE,166,7.0,12.0,91,0.00,,,0.11,Wunderground v.1.15,2013-01-11 07:59:00,
2013-01-11 02:05:00,41.9,39.5,29.83,SSE,163,7.0,12.0,91,0.00,,,0.11,Wunderground v.1.15,2013-01-11 08:05:00,
2013-01-11 02:10:00,42.2,39.8,29.83,SSE,148,7.0,11.0,91,0.00,,,0.11,Wunderground v.1.15,2013-01-11 08:10:00,
2013-01-11 02:15:00,42.3,39.9,29.82,SE,140,8.0,11.0,91,0.00,,,0.11,Wunderground v.1.15,2013-01-11 08:15:00,
2013-01-11 02:20:00,42.2,39.8,29.82,SSE,167,8.0,8.0,91,0.00,,,0.11,Wunderground v.1.15,2013-01-11 08:20:00,
2013-01-11 02:25:00,42.2,39.8,29.82,South,171,7.0,13.0,91,0.00,,,0.11,Wunderground v.1.15,2013-01-11 08:25:00,
2013-01-11 02:30:00,42.2,39.8,29.81,SSE,147,7.0,7.0,91,0.00,,,0.11,Wunderground v.1.15,2013-01-11 08:30:00,
2013-01-11 02:35:00,42.2,39.8,29.81,SSE,161,7.0,12.0,91,0.00,,,0.12,Wunderground v.1.15,2013-01-11 08:35:00,
2013-01-11 02:44:00,42.3,39.9,29.80,SE,141,7.0,13.0,91,0.15,,,0.14,Wunderground v.1.15,2013-01-11 08:44:00,
2013-01-11 02:49:00,42.5,40.1,29.80,SE,146,7.0,7.0,91,0.07,,,0.14,Wunderground v.1.15,2013-01-11 08:49:00,
2013-01-11 02:55:00,42.5,40.1,29.80,SSE,163,7.0,8.0,91,0.04,,,0.14,Wunderground v.1.15,2013-01-11 08:55:00,
2013-01-11 03:00:00,42.5,40.1,29.78,South,178,6.0,14.0,91,0.00,,,0.15,Wunderground v.1.15,2013-01-11 09:00:00,
2013-01-11 03:05:00,42.5,40.1,29.78,SSE,161,6.0,14.0,91,0.00,,,0.15,Wunderground v.1.15,2013-01-11 09:05:00,
2013-01-11 03:10:00,42.6,40.2,29.78,South,171,6.0,6.0,91,0.09,,,0.16,Wunderground v.1.15,2013-01-11 09:10:00,
2013-01-11 03:15:00,42.6,40.2,29.77,SE,146,6.0,6.0,91,0.08,,,0.17,Wunderground v.1.15,2013-01-11 09:15:00,
2013-01-11 03:20:00,42.6,40.2,29.77,SSE,157,6.0,10.0,91,0.09,,,0.17,Wunderground v.1.15,2013-01-11 09:20:00,
2013-01-11 03:25:00,42.8,40.6,29.77,SSE,158,6.0,10.0,92,0.13,,,0.19,Wunderground v.1.15,2013-01-11 09:25:00,
2013-01-11 03:30:00,42.9,40.7,29.76,SSE,151,6.0,7.0,92,0.10,,,0.19,Wunderground v.1.15,2013-01-11 09:30:00,
2013-01-11 03:35:00,43.2,41.0,29.76,SSE,165,7.0,7.0,92,0.10,,,0.20,Wunderground v.1.15,2013-01-11 09:35:00,
2013-01-11 03:40:00,43.5,41.3,29.76,South,178,7.0,7.0,92,0.19,,,0.22,Wunderground v.1.15,2013-01-11 09:40:00,
2013-01-11 03:44:00,44.2,42.3,29.75,SSE,168,7.0,11.0,93,0.20,,,0.24,Wunderground v.1.15,2013-01-11 09:44:00,
2013-01-11 03:49:00,44.5,42.6,29.75,SSE,158,8.0,8.0,93,0.20,,,0.25,Wunderground v.1.15,2013-01-11 09:49:00,
2013-01-11 03:54:00,44.5,42.3,29.75,SSE,162,8.0,8.0,92,0.19,,,0.27,Wunderground v.1.15,2013-01-11 09:54:00,
2013-01-11 04:00:00,44.3,42.1,29.73,SSE,150,7.0,7.0,92,0.15,,,0.27,Wunderground v.1.15,2013-01-11 10:00:00,
2013-01-11 04:05:00,44.5,42.6,29.73,South,181,5.0,11.0,93,0.12,,,0.29,Wunderground v.1.15,2013-01-11 10:05:00,
2013-01-11 04:10:00,45.2,43.3,29.73,South,170,6.0,11.0,93,0.12,,,0.29,Wunderground v.1.15,2013-01-11 10:10:00,
2013-01-11 04:15:00,45.2,43.3,29.73,SSE,162,7.0,11.0,93,0.06,,,0.29,Wunderground v.1.15,2013-01-11 10:15:00,
2013-01-11 04:20:00,45.2,43.3,29.73,SSE,167,7.0,7.0,93,0.04,,,0.29,Wunderground v.1.15,2013-01-11 10:20:00,
2013-01-11 04:25:00,45.4,43.5,29.73,South,178,7.0,14.0,93,0.00,,,0.29,Wunderground v.1.15,2013-01-11 10:25:00,
2013-01-11 04:30:00,45.7,43.8,29.72,SSE,155,8.0,8.0,93,0.00,,,0.29,Wunderground v.1.15,2013-01-11 10:30:00,
2013-01-11 04:35:00,46.2,44.3,29.72,South,175,10.0,10.0,93,0.00,,,0.29,Wunderground v.1.15,2013-01-11 10:35:00,
2013-01-11 04:40:00,46.7,44.8,29.72,SW,214,10.0,20.0,93,0.00,,,0.30,Wunderground v.1.15,2013-01-11 10:40:00,
2013-01-11 04:45:00,47.0,45.1,29.70,South,177,11.0,20.0,93,0.10,,,0.31,Wunderground v.1.15,2013-01-11 10:45:00,
2013-01-11 04:50:00,47.3,45.4,29.70,SSW,193,10.0,11.0,93,0.10,,,0.31,Wunderground v.1.15,2013-01-11 10:50:00,
2013-01-11 04:55:00,47.4,45.5,29.70,SSW,197,10.0,11.0,93,0.05,,,0.31,Wunderground v.1.15,2013-01-11 10:55:00,
2013-01-11 05:00:00,47.6,45.7,29.69,SSE,157,8.0,8.0,93,0.04,,,0.31,Wunderground v.1.15,2013-01-11 11:00:00,
2013-01-11 05:05:00,47.9,46.0,29.69,South,173,8.0,8.0,93,0.00,,,0.31,Wunderground v.1.15,2013-01-11 11:05:00,
2013-01-11 05:10:00,48.0,46.1,29.69,SSW,205,8.0,15.0,93,0.00,,,0.32,Wunderground v.1.15,2013-01-11 11:10:00,
2013-01-11 05:15:00,48.3,46.4,29.68,South,186,8.0,15.0,93,0.00,,,0.32,Wunderground v.1.15,2013-01-11 11:15:00,
2013-01-11 05:20:00,48.5,46.6,29.68,South,171,8.0,8.0,93,0.00,,,0.32,Wunderground v.1.15,2013-01-11 11:20:00,
2013-01-11 05:30:00,48.2,46.3,29.65,SE,146,6.0,6.0,93,0.00,,,0.32,Wunderground v.1.15,2013-01-11 11:30:00,
2013-01-11 05:35:00,48.2,46.3,29.65,South,179,5.0,11.0,93,0.00,,,0.32,Wunderground v.1.15,2013-01-11 11:35:00,
2013-01-11 05:40:00,48.0,46.1,29.65,SSE,157,6.0,6.0,93,0.00,,,0.32,Wunderground v.1.15,2013-01-11 11:40:00,
2013-01-11 05:45:00,48.0,46.1,29.65,SSE,161,6.0,6.0,93,0.00,,,0.32,Wunderground v.1.15,2013-01-11 11:45:00,
2013-01-11 05:50:00,48.0,46.1,29.65,SSE,151,6.0,8.0,93,0.00,,,0.32,Wunderground v.1.15,2013-01-11 11:50:00,
2013-01-11 05:55:00,48.0,46.1,29.65,South,180,7.0,8.0,93,0.00,,,0.32,Wunderground v.1.15,2013-01-11 11:55:00,
2013-01-11 06:00:00,48.3,46.4,29.66,South,171,8.0,8.0,93,0.00,,,0.32,Wunderground v.1.15,2013-01-11 12:00:00,
2013-01-11 06:10:00,48.9,47.2,29.66,SE,139,9.0,9.0,94,0.00,,,0.32,Wunderground v.1.15,2013-01-11 12:10:00,
2013-01-11 06:15:00,49.4,47.7,29.65,South,179,8.0,9.0,94,0.00,,,0.32,Wunderground v.1.15,2013-01-11 12:15:00,
2013-01-11 06:20:00,49.6,47.9,29.65,SSE,160,8.0,8.0,94,0.00,,,0.32,Wunderground v.1.15,2013-01-11 12:20:00,
2013-01-11 06:25:00,49.9,48.2,29.65,South,170,8.0,8.0,94,0.00,,,0.32,Wunderground v.1.15,2013-01-11 12:25:00,
2013-01-11 06:30:00,50.2,48.5,29.66,South,173,8.0,10.0,94,0.00,,,0.32,Wunderground v.1.15,2013-01-11 12:30:00,
2013-01-11 06:35:00,50.4,48.5,29.66,South,174,9.0,10.0,93,0.00,,,0.32,Wunderground v.1.15,2013-01-11 12:35:00,
2013-01-11 06:40:00,50.4,48.5,29.66,SSW,194,9.0,9.0,93,0.00,,,0.32,Wunderground v.1.15,2013-01-11 12:40:00,
2013-01-11 06:45:00,50.5,48.6,29.66,SSW,195,7.0,9.0,93,0.00,,,0.32,Wunderground v.1.15,2013-01-11 12:45:00,
2013-01-11 06:50:00,50.5,48.6,29.66,South,175,8.0,8.0,93,0.00,,,0.32,Wunderground v.1.15,2013-01-11 12:50:00,
2013-01-11 06:55:00,50.5,48.6,29.66,South,190,8.0,8.0,93,0.00,,,0.32,Wunderground v.1.15,2013-01-11 12:55:00,
2013-01-11 07:00:00,50.7,48.7,29.67,South,170,8.0,8.0,93,0.00,,,0.32,Wunderground v.1.15,2013-01-11 13:00:00,
2013-01-11 07:10:00,50.8,48.8,29.67,SSW,192,7.0,7.0,93,0.00,,,0.32,Wunderground v.1.15,2013-01-11 13:10:00,
2013-01-11 07:15:00,51.0,49.0,29.67,SSW,192,7.0,7.0,93,0.00,,,0.32,Wunderground v.1.15,2013-01-11 13:15:00,
2013-01-11 07:20:00,51.4,49.4,29.67,SSW,196,7.0,13.0,93,0.00,,,0.32,Wunderground v.1.15,2013-01-11 13:20:00,
2013-01-11 07:25:00,51.7,49.7,29.67,SSW,202,8.0,13.0,93,0.00,,,0.32,Wunderground v.1.15,2013-01-11 13:25:00,
2013-01-11 07:30:00,52.0,49.7,29.67,South,171,8.0,10.0,92,0.00,,,0.32,Wunderground v.1.15,2013-01-11 13:30:00,
2013-01-11 07:34:00,52.2,49.9,29.67,SSW,198,9.0,10.0,92,0.00,,,0.32,Wunderground v.1.15,2013-01-11 13:34:00,
2013-01-11 07:39:00,52.5,50.2,29.67,SSW,200,9.0,9.0,92,0.00,,,0.32,Wunderground v.1.15,2013-01-11 13:39:00,
2013-01-11 07:44:00,52.5,49.9,29.68,South,180,8.0,9.0,91,0.00,,,0.32,Wunderground v.1.15,2013-01-11 13:44:00,
2013-01-11 07:49:00,52.5,49.9,29.68,South,187,8.0,14.0,91,0.00,,,0.32,Wunderground v.1.15,2013-01-11 13:49:00,
2013-01-11 07:54:00,52.5,49.9,29.68,SSW,201,8.0,14.0,91,0.00,,,0.32,Wunderground v.1.15,2013-01-11 13:54:00,
2013-01-11 07:59:00,52.5,49.9,29.68,South,184,9.0,16.0,91,0.00,,,0.32,Wunderground v.1.15,2013-01-11 13:59:00,
2013-01-11 08:05:00,52.6,50.0,29.68,SSW,205,8.0,16.0,91,0.00,,,0.32,Wunderground v.1.15,2013-01-11 14:05:00,
2013-01-11 08:10:00,52.6,50.0,29.68,SSW,208,9.0,9.0,91,0.00,,,0.32,Wunderground v.1.15,2013-01-11 14:10:00,
2013-01-11 08:15:00,52.8,50.2,29.68,South,189,9.0,9.0,91,0.00,,,0.32,Wunderground v.1.15,2013-01-11 14:15:00,
2013-01-11 08:20:00,52.9,50.0,29.68,South,187,8.0,8.0,90,0.00,,,0.32,Wunderground v.1.15,2013-01-11 14:20:00,
2013-01-11 08:25:00,52.9,50.0,29.68,SSW,209,8.0,8.0,90,0.00,,,0.32,Wunderground v.1.15,2013-01-11 14:25:00,
2013-01-11 08:30:00,53.1,50.2,29.68,SSW,202,8.0,8.0,90,0.00,,,0.32,Wunderground v.1.15,2013-01-11 14:30:00,
2013-01-11 08:34:00,53.2,50.3,29.68,SSW,200,8.0,16.0,90,0.00,,,0.32,Wunderground v.1.15,2013-01-11 14:34:00,
2013-01-11 08:39:00,53.3,50.4,29.68,SSW,203,8.0,9.0,90,0.00,,,0.32,Wunderground v.1.15,2013-01-11 14:39:00,
2013-01-11 08:45:00,53.3,50.4,29.68,SSW,196,8.0,9.0,90,0.00,,,0.32,Wunderground v.1.15,2013-01-11 14:45:00,
2013-01-11 08:50:00,53.5,50.6,29.68,SW,220,8.0,12.0,90,0.00,,,0.32,Wunderground v.1.15,2013-01-11 14:50:00,
2013-01-11 08:55:00,53.6,50.7,29.68,SW,235,8.0,12.0,90,0.00,,,0.32,Wunderground v.1.15,2013-01-11 14:55:00,
2013-01-11 08:59:00,53.6,50.7,29.68,SSW,204,7.0,7.0,90,0.00,,,0.32,Wunderground v.1.15,2013-01-11 14:59:00,
2013-01-11 09:05:00,53.8,50.9,29.68,SW,219,7.0,8.0,90,0.00,,,0.32,Wunderground v.1.15,2013-01-11 15:05:00,
2013-01-11 09:10:00,53.9,50.7,29.68,SSW,209,7.0,7.0,89,0.00,,,0.32,Wunderground v.1.15,2013-01-11 15:10:00,
2013-01-11 09:15:00,53.9,50.7,29.68,WSW,250,6.0,10.0,89,0.00,,,0.32,Wunderground v.1.15,2013-01-11 15:15:00,
2013-01-11 09:20:00,54.1,50.9,29.68,WSW,245,6.0,6.0,89,0.00,,,0.32,Wunderground v.1.15,2013-01-11 15:20:00,
2013-01-11 09:25:00,54.1,50.6,29.68,SSW,208,7.0,10.0,88,0.00,,,0.32,Wunderground v.1.15,2013-01-11 15:25:00,
2013-01-11 09:30:00,54.2,50.4,29.69,West,259,8.0,8.0,87,0.00,,,0.32,Wunderground v.1.15,2013-01-11 15:30:00,
2013-01-11 09:35:00,54.2,50.4,29.69,SW,232,9.0,9.0,87,0.00,,,0.32,Wunderground v.1.15,2013-01-11 15:35:00,
2013-01-11 09:39:00,54.4,50.3,29.69,WSW,249,9.0,10.0,86,0.00,,,0.32,Wunderground v.1.15,2013-01-11 15:39:00,
2013-01-11 09:44:00,54.5,50.1,29.70,West,275,10.0,10.0,85,0.00,,,0.32,Wunderground v.1.15,2013-01-11 15:44:00,
2013-01-11 09:50:00,54.5,49.8,29.70,West,263,11.0,16.0,84,0.00,,,0.32,Wunderground v.1.15,2013-01-11 15:50:00,
2013-01-11 09:55:00,54.4,49.3,29.70,SW,221,12.0,16.0,83,0.00,,,0.32,Wunderground v.1.15,2013-01-11 15:55:00,
2013-01-11 10:00:00,54.1,49.1,29.71,West,269,13.0,13.0,83,0.00,,,0.32,Wunderground v.1.15,2013-01-11 16:00:00,
2013-01-11 10:05:00,53.9,47.9,29.71,West,277,12.0,19.0,80,0.00,,,0.32,Wunderground v.1.15,2013-01-11 16:05:00,
2013-01-11 10:10:00,53.5,48.8,29.71,West,273,12.0,16.0,84,0.00,,,0.32,Wunderground v.1.15,2013-01-11 16:10:00,
2013-01-11 10:15:00,53.2,48.5,29.73,WSW,240,13.0,16.0,84,0.00,,,0.32,Wunderground v.1.15,2013-01-11 16:15:00,
2013-01-11 10:20:00,52.8,48.1,29.73,WSW,242,13.0,13.0,84,0.00,,,0.32,Wunderground v.1.15,2013-01-11 16:20:00,
2013-01-11 10:25:00,52.6,48.2,29.73,WSW,254,12.0,13.0,85,0.00,,,0.32,Wunderground v.1.15,2013-01-11 16:25:00,
2013-01-11 10:30:00,52.6,48.5,29.72,West,267,11.0,11.0,86,0.00,,,0.32,Wunderground v.1.15,2013-01-11 16:30:00,
2013-01-11 10:35:00,52.5,48.4,29.72,West,274,12.0,20.0,86,0.00,,,0.32,Wunderground v.1.15,2013-01-11 16:35:00,
2013-01-11 10:40:00,52.3,48.2,29.72,West,265,13.0,13.0,86,0.00,,,0.32,Wunderground v.1.15,2013-01-11 16:40:00,
2013-01-11 10:45:00,52.2,48.1,29.71,West,261,13.0,15.0,86,0.00,,,0.32,Wunderground v.1.15,2013-01-11 16:45:00,
2013-01-11 10:49:00,52.2,48.1,29.71,WSW,247,12.0,12.0,86,0.00,,,0.32,Wunderground v.1.15,2013-01-11 16:49:00,
2013-01-11 10:54:00,52.2,48.1,29.71,WSW,247,11.0,16.0,86,0.00,,,0.32,Wunderground v.1.15,2013-01-11 16:54:00,
2013-01-11 10:59:00,52.2,48.4,29.72,SW,236,10.0,10.0,87,0.00,,,0.32,Wunderground v.1.15,2013-01-11 16:59:00,
2013-01-11 11:05:00,52.0,48.3,29.72,WSW,252,10.0,10.0,87,0.00,,,0.32,Wunderground v.1.15,2013-01-11 17:05:00,
2013-01-11 11:10:00,52.0,47.9,29.72,West,267,10.0,13.0,86,0.00,,,0.32,Wunderground v.1.15,2013-01-11 17:10:00,
2013-01-11 11:20:00,51.9,47.8,29.72,West,261,10.0,10.0,86,0.00,,,0.32,Wunderground v.1.15,2013-01-11 17:20:00,
2013-01-11 11:25:00,51.9,47.8,29.72,WSW,240,10.0,10.0,86,0.00,,,0.32,Wunderground v.1.15,2013-01-11 17:25:00,
2013-01-11 11:30:00,51.9,47.8,29.72,WSW,242,9.0,9.0,86,0.00,,,0.32,Wunderground v.1.15,2013-01-11 17:30:00,
2013-01-11 11:35:00,51.9,47.8,29.72,WSW,256,7.0,12.0,86,0.00,,,0.32,Wunderground v.1.15,2013-01-11 17:35:00,
2013-01-11 11:40:00,52.0,47.6,29.72,WSW,255,8.0,10.0,85,0.00,,,0.32,Wunderground v.1.15,2013-01-11 17:40:00,
2013-01-11 11:45:00,52.2,47.8,29.71,SW,229,9.0,10.0,85,0.00,,,0.32,Wunderground v.1.15,2013-01-11 17:45:00,
2013-01-11 11:50:00,52.5,47.8,29.71,WSW,248,8.0,8.0,84,0.00,,,0.32,Wunderground v.1.15,2013-01-11 17:50:00,
2013-01-11 11:54:00,52.6,47.9,29.71,WSW,240,7.0,11.0,84,0.00,,,0.32,Wunderground v.1.15,2013-01-11 17:54:00,
2013-01-11 11:59:00,52.8,47.8,29.71,SW,233,9.0,9.0,83,0.00,,,0.32,Wunderground v.1.15,2013-01-11 17:59:00,
2013-01-11 12:05:00,52.8,47.8,29.71,West,269,9.0,11.0,83,0.00,,,0.32,Wunderground v.1.15,2013-01-11 18:05:00,
2013-01-11 12:10:00,52.5,47.5,29.71,WSW,250,9.0,14.0,83,0.00,,,0.32,Wunderground v.1.15,2013-01-11 18:10:00,
2013-01-11 12:15:00,52.3,47.6,29.71,SW,220,9.0,14.0,84,0.00,,,0.32,Wunderground v.1.15,2013-01-11 18:15:00,
2013-01-11 12:20:00,52.2,47.5,29.71,West,263,8.0,8.0,84,0.00,,,0.32,Wunderground v.1.15,2013-01-11 18:20:00,
2013-01-11 12:25:00,52.0,47.0,29.71,WSW,248,10.0,10.0,83,0.00,,,0.32,Wunderground v.1.15,2013-01-11 18:25:00,
2013-01-11 12:30:00,51.7,46.7,29.71,West,266,11.0,11.0,83,0.00,,,0.32,Wunderground v.1.15,2013-01-11 18:30:00,
2013-01-11 12:35:00,51.3,46.3,29.71,West,276,9.0,12.0,83,0.00,,,0.32,Wunderground v.1.15,2013-01-11 18:35:00,
2013-01-11 12:40:00,51.4,46.7,29.71,WSW,257,7.0,11.0,84,0.00,,,0.32,Wunderground v.1.15,2013-01-11 18:40:00,
2013-01-11 12:45:00,51.3,46.6,29.72,West,267,7.0,11.0,84,0.00,,,0.32,Wunderground v.1.15,2013-01-11 18:45:00,
2013-01-11 12:50:00,51.1,46.4,29.72,WSW,250,9.0,9.0,84,0.00,,,0.32,Wunderground v.1.15,2013-01-11 18:50:00,
2013-01-11 12:55:00,51.0,46.3,29.72,WSW,256,8.0,10.0,84,0.00,,,0.32,Wunderground v.1.15,2013-01-11 18:55:00,
2013-01-11 13:00:00,50.7,46.0,29.73,WSW,241,8.0,9.0,84,0.00,,,0.32,Wunderground v.1.15,2013-01-11 19:00:00,
2013-01-11 13:05:00,50.4,45.7,29.73,SW,216,10.0,10.0,84,0.00,,,0.32,Wunderground v.1.15,2013-01-11 19:05:00,
2013-01-11 13:10:00,49.9,45.6,29.73,SW,225,11.0,11.0,85,0.00,,,0.32,Wunderground v.1.15,2013-01-11 19:10:00,
2013-01-11 13:15:00,49.6,45.3,29.73,West,266,10.0,11.0,85,0.00,,,0.32,Wunderground v.1.15,2013-01-11 19:15:00,
2013-01-11 13:20:00,49.4,45.1,29.73,West,277,10.0,10.0,85,0.00,,,0.32,Wunderground v.1.15,2013-01-11 19:20:00,
2013-01-11 13:25:00,49.4,45.4,29.73,WSW,252,10.0,10.0,86,0.00,,,0.32,Wunderground v.1.15,2013-01-11 19:25:00,
2013-01-11 13:30:00,49.5,45.5,29.73,WSW,244,9.0,9.0,86,0.00,,,0.32,Wunderground v.1.15,2013-01-11 19:30:00,
2013-01-11 13:35:00,49.6,45.6,29.73,SW,217,8.0,9.0,86,0.00,,,0.32,Wunderground v.1.15,2013-01-11 19:35:00,
2013-01-11 13:40:00,49.6,45.6,29.73,SW,235,8.0,8.0,86,0.00,,,0.32,Wunderground v.1.15,2013-01-11 19:40:00,
2013-01-11 13:45:00,49.8,45.5,29.74,WSW,252,8.0,11.0,85,0.00,,,0.32,Wunderground v.1.15,2013-01-11 19:45:00,
2013-01-11 13:50:00,49.9,45.6,29.74,WSW,238,7.0,9.0,85,0.00,,,0.32,Wunderground v.1.15,2013-01-11 19:50:00,
2013-01-11 13:55:00,50.1,45.5,29.74,SW,214,7.0,9.0,84,0.00,,,0.32,Wunderground v.1.15,2013-01-11 19:55:00,
2013-01-11 14:00:00,50.2,45.6,29.74,WSW,248,8.0,9.0,84,0.00,,,0.32,Wunderground v.1.15,2013-01-11 20:00:00,
2013-01-11 14:05:00,50.5,45.5,29.74,WSW,249,8.0,10.0,83,0.00,,,0.32,Wunderground v.1.15,2013-01-11 20:05:00,
2013-01-11 14:10:00,50.7,45.7,29.74,SW,234,7.0,7.0,83,0.00,,,0.32,Wunderground v.1.15,2013-01-11 20:10:00,
2013-01-11 14:15:00,50.7,45.7,29.75,SW,229,7.0,7.0,83,0.00,,,0.32,Wunderground v.1.15,2013-01-11 20:15:00,
2013-01-11 14:20:00,50.7,45.4,29.75,SW,223,8.0,8.0,82,0.00,,,0.32,Wunderground v.1.15,2013-01-11 20:20:00,
2013-01-11 14:25:00,50.5,45.2,29.75,WSW,239,8.0,10.0,82,0.00,,,0.32,Wunderground v.1.15,2013-01-11 20:25:00,
2013-01-11 14:30:00,50.5,45.2,29.75,SW,227,7.0,7.0,82,0.00,,,0.32,Wunderground v.1.15,2013-01-11 20:30:00,
2013-01-11 14:35:00,50.5,45.2,29.75,West,272,8.0,13.0,82,0.00,,,0.32,Wunderground v.1.15,2013-01-11 20:35:00,
2013-01-11 14:40:00,50.4,45.1,29.75,WSW,251,8.0,8.0,82,0.00,,,0.32,Wunderground v.1.15,2013-01-11 20:40:00,
2013-01-11 14:45:00,50.4,45.4,29.75,SSW,200,6.0,9.0,83,0.00,,,0.32,Wunderground v.1.15,2013-01-11 20:45:00,
2013-01-11 14:50:00,50.1,44.8,29.75,SSW,206,6.0,7.0,82,0.00,,,0.32,Wunderground v.1.15,2013-01-11 20:50:00,
2013-01-11 14:55:00,49.9,44.9,29.75,SSW,205,8.0,8.0,83,0.00,,,0.32,Wunderground v.1.15,2013-01-11 20:55:00,
2013-01-11 15:00:00,49.8,45.2,29.76,SSW,205,6.0,6.0,84,0.00,,,0.32,Wunderground v.1.15,2013-01-11 21:00:00,
2013-01-11 15:04:00,49.6,45.0,29.76,WSW,246,5.0,11.0,84,0.00,,,0.32,Wunderground v.1.15,2013-01-11 21:04:00,
2013-01-11 15:09:00,49.6,45.0,29.76,WSW,245,6.0,6.0,84,0.00,,,0.32,Wunderground v.1.15,2013-01-11 21:09:00,
2013-01-11 15:14:00,49.5,44.9,29.76,WSW,237,6.0,6.0,84,0.00,,,0.32,Wunderground v.1.15,2013-01-11 21:14:00,
2013-01-11 15:19:00,49.5,44.9,29.76,WSW,242,5.0,7.0,84,0.00,,,0.32,Wunderground v.1.15,2013-01-11 21:19:00,
2013-01-11 15:24:00,49.5,44.9,29.76,WSW,237,6.0,7.0,84,0.00,,,0.32,Wunderground v.1.15,2013-01-11 21:24:00,
2013-01-11 15:29:00,49.5,44.9,29.76,SW,227,7.0,7.0,84,0.00,,,0.32,Wunderground v.1.15,2013-01-11 21:29:00,
2013-01-11 15:34:00,49.5,44.9,29.76,WSW,250,6.0,7.0,84,0.00,,,0.32,Wunderground v.1.15,2013-01-11 21:34:00,
2013-01-11 15:39:00,49.6,45.0,29.76,SSW,207,5.0,5.0,84,0.00,,,0.32,Wunderground v.1.15,2013-01-11 21:39:00,
2013-01-11 15:44:00,49.6,45.0,29.75,SSW,201,5.0,5.0,84,0.00,,,0.32,Wunderground v.1.15,2013-01-11 21:44:00,
2013-01-11 15:49:00,49.8,45.2,29.75,WSW,243,5.0,5.0,84,0.00,,,0.32,Wunderground v.1.15,2013-01-11 21:49:00,
2013-01-11 15:55:00,49.9,44.9,29.75,SSW,209,5.0,6.0,83,0.00,,,0.32,Wunderground v.1.15,2013-01-11 21:55:00,
2013-01-11 16:00:00,50.1,45.1,29.74,South,190,5.0,7.0,83,0.00,,,0.32,Wunderground v.1.15,2013-01-11 22:00:00,
2013-01-11 16:04:00,50.1,45.1,29.74,South,187,5.0,7.0,83,0.00,,,0.32,Wunderground v.1.15,2013-01-11 22:04:00,
2013-01-11 16:09:00,50.1,45.1,29.74,South,184,5.0,5.0,83,0.00,,,0.32,Wunderground v.1.15,2013-01-11 22:09:00,
2013-01-11 16:14:00,49.9,44.9,29.74,South,172,4.0,5.0,83,0.00,,,0.32,Wunderground v.1.15,2013-01-11 22:14:00,
2013-01-11 16:19:00,49.8,44.8,29.74,South,172,4.0,4.0,83,0.00,,,0.32,Wunderground v.1.15,2013-01-11 22:19:00,
2013-01-11 16:24:00,49.9,44.9,29.74,South,186,4.0,5.0,83,0.00,,,0.32,Wunderground v.1.15,2013-01-11 22:24:00,
2013-01-11 16:29:00,49.8,44.8,29.74,SSW,198,4.0,4.0,83,0.00,,,0.32,Wunderground v.1.15,2013-01-11 22:29:00,
2013-01-11 16:34:00,49.8,44.8,29.74,South,173,4.0,5.0,83,0.00,,,0.32,Wunderground v.1.15,2013-01-11 22:34:00,
2013-01-11 16:40:00,49.6,44.6,29.74,South,177,4.0,4.0,83,0.00,,,0.32,Wunderground v.1.15,2013-01-11 22:40:00,
2013-01-11 16:45:00,49.6,44.6,29.74,SSW,193,4.0,5.0,83,0.00,,,0.32,Wunderground v.1.15,2013-01-11 22:45:00,
2013-01-11 16:49:00,49.6,44.6,29.74,South,189,4.0,6.0,83,0.00,,,0.32,Wunderground v.1.15,2013-01-11 22:49:00,
2013-01-11 16:54:00,49.6,44.6,29.74,South,180,4.0,6.0,83,0.00,,,0.32,Wunderground v.1.15,2013-01-11 22:54:00,
2013-01-11 16:59:00,49.5,44.6,29.73,South,178,5.0,5.0,83,0.00,,,0.32,Wunderground v.1.15,2013-01-11 22:59:00,
2013-01-11 17:05:00,49.5,44.6,29.73,SSW,198,5.0,5.0,83,0.00,,,0.32,Wunderground v.1.15,2013-01-11 23:05:00,
2013-01-11 17:10:00,49.5,44.6,29.73,SSW,196,4.0,4.0,83,0.00,,,0.32,Wunderground v.1.15,2013-01-11 23:10:00,
2013-01-11 17:15:00,49.5,44.6,29.74,SSW,194,4.0,4.0,83,0.00,,,0.32,Wunderground v.1.15,2013-01-11 23:15:00,
2013-01-11 17:20:00,49.4,44.5,29.74,SSW,192,4.0,4.0,83,0.00,,,0.32,Wunderground v.1.15,2013-01-11 23:20:00,
2013-01-11 17:25:00,49.4,44.5,29.74,South,191,3.0,4.0,83,0.00,,,0.32,Wunderground v.1.15,2013-01-11 23:25:00,
2013-01-11 17:30:00,49.4,44.5,29.74,South,191,3.0,3.0,83,0.00,,,0.32,Wunderground v.1.15,2013-01-11 23:30:00,
2013-01-11 17:35:00,49.2,44.3,29.74,South,191,3.0,3.0,83,0.00,,,0.32,Wunderground v.1.15,2013-01-11 23:35:00,
2013-01-11 17:40:00,49.1,44.5,29.74,South,191,4.0,4.0,84,0.00,,,0.32,Wunderground v.1.15,2013-01-11 23:40:00,
2013-01-11 17:45:00,49.1,44.5,29.75,South,191,4.0,4.0,84,0.00,,,0.32,Wunderground v.1.15,2013-01-11 23:45:00,
2013-01-11 17:50:00,48.9,44.3,29.75,South,191,3.0,3.0,84,0.00,,,0.32,Wunderground v.1.15,2013-01-11 23:50:00,
2013-01-11 17:55:00,48.9,44.3,29.75,SSW,192,4.0,7.0,84,0.00,,,0.32,Wunderground v.1.15,2013-01-11 23:55:00,
2013-01-11 18:00:00,48.9,44.3,29.74,South,188,4.0,4.0,84,0.00,,,0.32,Wunderground v.1.15,2013-01-12 00:00:00,
2013-01-11 18:05:00,48.9,44.3,29.74,SSW,193,4.0,8.0,84,0.00,,,0.32,Wunderground v.1.15,2013-01-12 00:05:00,
2013-01-11 18:10:00,48.9,44.3,29.74,South,176,5.0,5.0,84,0.00,,,0.32,Wunderground v.1.15,2013-01-12 00:10:00,
2013-01-11 18:15:00,48.9,44.3,29.73,South,176,4.0,5.0,84,0.00,,,0.32,Wunderground v.1.15,2013-01-12 00:15:00,
2013-01-11 18:20:00,48.9,44.3,29.73,South,173,3.0,3.0,84,0.00,,,0.32,Wunderground v.1.15,2013-01-12 00:20:00,
2013-01-11 18:25:00,48.9,44.3,29.73,South,188,3.0,3.0,84,0.00,,,0.32,Wunderground v.1.15,2013-01-12 00:25:00,
2013-01-11 18:30:00,48.8,44.2,29.72,South,188,3.0,3.0,84,0.00,,,0.32,Wunderground v.1.15,2013-01-12 00:30:00,
2013-01-11 18:35:00,48.9,44.3,29.72,South,186,2.0,5.0,84,0.00,,,0.32,Wunderground v.1.15,2013-01-12 00:35:00,
2013-01-11 18:40:00,49.2,44.6,29.72,South,188,4.0,7.0,84,0.00,,,0.32,Wunderground v.1.15,2013-01-12 00:40:00,
2013-01-11 18:45:00,49.4,44.8,29.72,SSW,207,5.0,13.0,84,0.00,,,0.32,Wunderground v.1.15,2013-01-12 00:45:00,
2013-01-11 18:50:00,49.6,45.0,29.72,South,189,5.0,5.0,84,0.00,,,0.32,Wunderground v.1.15,2013-01-12 00:50:00,
2013-01-11 18:55:00,49.8,44.8,29.72,South,184,5.0,9.0,83,0.00,,,0.32,Wunderground v.1.15,2013-01-12 00:55:00,
2013-01-11 19:00:00,50.1,45.1,29.72,SW,224,5.0,6.0,83,0.00,,,0.32,Wunderground v.1.15,2013-01-12 01:00:00,
2013-01-11 19:09:00,50.4,45.4,29.72,SSW,200,7.0,12.0,83,0.00,,,0.32,Wunderground v.1.15,2013-01-12 01:09:00,
2013-01-11 19:15:00,50.5,45.2,29.72,South,184,7.0,12.0,82,0.00,,,0.32,Wunderground v.1.15,2013-01-12 01:15:00,
2013-01-11 19:20:00,50.5,45.2,29.72,South,179,7.0,7.0,82,0.00,,,0.32,Wunderground v.1.15,2013-01-12 01:20:00,
2013-01-11 19:25:00,50.7,45.4,29.72,SSW,195,6.0,7.0,82,0.00,,,0.32,Wunderground v.1.15,2013-01-12 01:25:00,
2013-01-11 19:30:00,50.7,45.4,29.72,SSW,193,7.0,7.0,82,0.00,,,0.32,Wunderground v.1.15,2013-01-12 01:30:00,
2013-01-11 19:35:00,50.7,45.4,29.72,South,188,6.0,7.0,82,0.00,,,0.32,Wunderground v.1.15,2013-01-12 01:35:00,
2013-01-11 19:39:00,50.8,45.5,29.72,SSW,205,6.0,6.0,82,0.00,,,0.32,Wunderground v.1.15,2013-01-12 01:39:00,
2013-01-11 19:44:00,51.0,45.7,29.73,South,186,6.0,6.0,82,0.00,,,0.32,Wunderground v.1.15,2013-01-12 01:44:00,
2013-01-11 19:49:00,51.0,45.7,29.73,South,190,6.0,6.0,82,0.00,,,0.32,Wunderground v.1.15,2013-01-12 01:49:00,
2013-01-11 19:54:00,51.1,45.8,29.73,SSW,195,6.0,7.0,82,0.00,,,0.32,Wunderground v.1.15,2013-01-12 01:54:00,
2013-01-11 19:59:00,51.1,45.8,29.73,SSW,193,6.0,6.0,82,0.00,,,0.32,Wunderground v.1.15,2013-01-12 01:59:00,
2013-01-11 20:05:00,51.0,45.7,29.73,South,181,6.0,6.0,82,0.00,,,0.32,Wunderground v.1.15,2013-01-12 02:05:00,
2013-01-11 20:10:00,51.0,45.7,29.73,SSW,196,6.0,13.0,82,0.00,,,0.32,Wunderground v.1.15,2013-01-12 02:10:00,
2013-01-11 20:15:00,51.0,45.7,29.72,SSW,203,6.0,13.0,82,0.00,,,0.32,Wunderground v.1.15,2013-01-12 02:15:00,
2013-01-11 20:20:00,50.8,45.5,29.72,SSW,201,6.0,6.0,82,0.00,,,0.32,Wunderground v.1.15,2013-01-12 02:20:00,
2013-01-11 20:25:00,50.8,45.5,29.72,SSW,197,4.0,6.0,82,0.00,,,0.32,Wunderground v.1.15,2013-01-12 02:25:00,
2013-01-11 20:30:00,51.0,45.7,29.72,SSW,200,5.0,10.0,82,0.00,,,0.32,Wunderground v.1.15,2013-01-12 02:30:00,
2013-01-11 20:35:00,51.4,46.1,29.72,SSW,196,6.0,10.0,82,0.00,,,0.32,Wunderground v.1.15,2013-01-12 02:35:00,
2013-01-11 20:39:00,51.6,46.3,29.72,SSW,197,7.0,12.0,82,0.00,,,0.32,Wunderground v.1.15,2013-01-12 02:39:00,
2013-01-11 20:44:00,51.9,46.6,29.71,South,187,7.0,12.0,82,0.00,,,0.32,Wunderground v.1.15,2013-01-12 02:44:00,
2013-01-11 20:49:00,52.2,46.9,29.71,SSW,204,8.0,8.0,82,0.00,,,0.32,Wunderground v.1.15,2013-01-12 02:49:00,
2013-01-11 20:54:00,52.3,47.0,29.71,SW,214,8.0,8.0,82,0.00,,,0.32,Wunderground v.1.15,2013-01-12 02:54:00,
2013-01-11 21:00:00,52.5,46.8,29.71,SSW,200,7.0,7.0,81,0.00,,,0.32,Wunderground v.1.15,2013-01-12 03:00:00,
2013-01-11 21:05:00,52.5,46.8,29.71,SSW,212,7.0,7.0,81,0.00,,,0.32,Wunderground v.1.15,2013-01-12 03:05:00,
2013-01-11 21:10:00,52.6,46.9,29.71,SW,227,9.0,9.0,81,0.00,,,0.32,Wunderground v.1.15,2013-01-12 03:10:00,
2013-01-11 21:15:00,52.8,47.1,29.70,SW,232,10.0,11.0,81,0.00,,,0.32,Wunderground v.1.15,2013-01-12 03:15:00,
2013-01-11 21:20:00,52.8,47.1,29.70,SSW,212,9.0,9.0,81,0.00,,,0.32,Wunderground v.1.15,2013-01-12 03:20:00,
2013-01-11 21:25:00,52.9,47.2,29.70,South,182,8.0,15.0,81,0.00,,,0.32,Wunderground v.1.15,2013-01-12 03:25:00,
2013-01-11 21:29:00,53.1,47.1,29.70,SSW,209,9.0,9.0,80,0.00,,,0.32,Wunderground v.1.15,2013-01-12 03:29:00,
2013-01-11 21:35:00,53.1,47.4,29.70,SSW,204,9.0,15.0,81,0.00,,,0.32,Wunderground v.1.15,2013-01-12 03:35:00,
2013-01-11 21:39:00,53.1,47.4,29.70,SW,215,8.0,8.0,81,0.00,,,0.32,Wunderground v.1.15,2013-01-12 03:39:00,
2013-01-11 21:44:00,53.1,47.1,29.70,SW,222,9.0,13.0,80,0.00,,,0.32,Wunderground v.1.15,2013-01-12 03:44:00,
2013-01-11 21:49:00,53.1,47.1,29.70,SSW,192,8.0,14.0,80,0.00,,,0.32,Wunderground v.1.15,2013-01-12 03:49:00,
2013-01-11 21:54:00,53.1,47.1,29.70,SSW,198,9.0,14.0,80,0.00,,,0.32,Wunderground v.1.15,2013-01-12 03:54:00,
2013-01-11 22:00:00,53.1,47.1,29.70,SSW,208,9.0,9.0,80,0.00,,,0.32,Wunderground v.1.15,2013-01-12 04:00:00,
2013-01-11 22:05:00,53.1,47.1,29.70,SSW,198,8.0,14.0,80,0.00,,,0.32,Wunderground v.1.15,2013-01-12 04:05:00,
2013-01-11 22:10:00,53.1,47.1,29.70,WSW,240,8.0,15.0,80,0.00,,,0.32,Wunderground v.1.15,2013-01-12 04:10:00,
2013-01-11 22:15:00,53.1,46.8,29.70,SSW,213,7.0,15.0,79,0.00,,,0.32,Wunderground v.1.15,2013-01-12 04:15:00,
2013-01-11 22:20:00,53.2,46.9,29.70,SSW,194,8.0,8.0,79,0.00,,,0.32,Wunderground v.1.15,2013-01-12 04:20:00,
2013-01-11 22:25:00,53.3,45.9,29.70,SSW,207,8.0,9.0,76,0.00,,,0.32,Wunderground v.1.15,2013-01-12 04:25:00,
2013-01-11 22:29:00,53.2,46.9,29.70,SW,215,7.0,7.0,79,0.00,,,0.32,Wunderground v.1.15,2013-01-12 04:29:00,
2013-01-11 22:34:00,53.2,46.9,29.70,SSW,202,7.0,8.0,79,0.00,,,0.32,Wunderground v.1.15,2013-01-12 04:34:00,
2013-01-11 22:39:00,53.2,46.9,29.70,South,187,8.0,9.0,79,0.00,,,0.32,Wunderground v.1.15,2013-01-12 04:39:00,
2013-01-11 22:44:00,53.2,46.9,29.69,SSW,199,8.0,9.0,79,0.00,,,0.32,Wunderground v.1.15,2013-01-12 04:44:00,
2013-01-11 22:49:00,53.2,46.9,29.69,SW,218,9.0,12.0,79,0.00,,,0.32,Wunderground v.1.15,2013-01-12 04:49:00,
2013-01-11 22:54:00,53.1,46.8,29.69,SSW,202,8.0,12.0,79,0.00,,,0.32,Wunderground v.1.15,2013-01-12 04:54:00,
2013-01-11 22:59:00,53.1,47.1,29.69,SW,218,8.0,8.0,80,0.00,,,0.32,Wunderground v.1.15,2013-01-12 04:59:00,
2013-01-11 23:05:00,53.1,47.1,29.69,SSW,195,9.0,10.0,80,0.00,,,0.00,Wunderground v.1.15,2013-01-12 05:05:00,
2013-01-11 23:10:00,52.9,46.9,29.69,SW,221,8.0,9.0,80,0.00,,,0.00,Wunderground v.1.15,2013-01-12 05:10:00,
2013-01-11 23:15:00,53.1,47.1,29.69,SSW,212,8.0,9.0,80,0.00,,,0.00,Wunderground v.1.15,2013-01-12 05:15:00,
2013-01-11 23:20:00,53.2,46.9,29.69,South,176,9.0,11.0,79,0.00,,,0.00,Wunderground v.1.15,2013-01-12 05:20:00,
2013-01-11 23:25:00,53.1,46.8,29.69,SSW,194,8.0,11.0,79,0.00,,,0.00,Wunderground v.1.15,2013-01-12 05:25:00,
2013-01-11 23:30:00,53.2,46.9,29.69,SSW,210,8.0,8.0,79,0.00,,,0.00,Wunderground v.1.15,2013-01-12 05:30:00,
2013-01-11 23:39:00,53.1,48.1,29.69,SSW,207,8.0,8.0,83,0.00,,,0.00,Wunderground v.1.15,2013-01-12 05:39:00,
2013-01-11 23:44:00,53.2,46.9,29.69,SW,222,7.0,8.0,79,0.00,,,0.00,Wunderground v.1.15,2013-01-12 05:44:00,
2013-01-11 23:49:00,53.2,46.9,29.69,SSW,206,7.0,7.0,79,0.00,,,0.00,Wunderground v.1.15,2013-01-12 05:49:00,
2013-01-11 23:54:00,53.2,46.9,29.69,WSW,254,7.0,8.0,79,0.00,,,0.00,Wunderground v.1.15,2013-01-12 05:54:00,
2013-01-11 23:59:00,53.3,47.0,29.70,SW,218,7.0,7.0,79,0.00,,,0.00,Wunderground v.1.15,2013-01-12 05:59:00,